| time (UTC) | temp C | wind direction | speed KPH | gust KPH | rain 1hr cm | rain 24hr cm | rain mn cm | humidity % | barometer mb |
| 20260510142831 | 23 | 266 | 19.3 | 22.5 | 0.00 | 0.66 | 0.00 | 86 | 984.8 |
| 20260510142330 | 18 | 274 | 22.5 | 22.5 | 0.00 | 0.30 | 0.00 | 91 | 990.6 |
| 20260510141830 | 18 | 269 | 19.3 | 22.5 | 0.00 | 0.33 | 0.00 | 91 | 990.6 |
| 20260510141601 | 18 | 268 | 19.3 | 22.5 | 0.00 | 0.33 | 0.00 | 91 | 990.6 |
| 20260510141330 | 18 | 264 | 16.1 | 22.5 | 0.00 | 0.33 | 0.00 | 91 | 990.6 |
| 20260510140830 | 23 | 263 | 20.9 | 22.5 | 0.00 | 0.66 | 0.00 | 89 | 984.8 |
| 20260510140331 | 23 | 273 | 19.3 | 20.9 | 0.00 | 0.66 | 0.00 | 89 | 984.7 |
| 20260510135833 | 18 | 273 | 19.3 | 20.9 | 0.00 | 0.33 | 0.00 | 91 | 990.6 |
| 20260510135800 | 18 | 273 | 19.3 | 20.9 | 0.00 | 0.33 | 0.00 | 91 | 990.6 |
| 20260510135330 | 22 | 269 | 19.3 | 24.1 | 0.00 | 0.66 | 0.00 | 90 | 984.7 |
| 20260510134830 | 18 | 275 | 16.1 | 22.5 | 0.00 | 0.33 | 0.00 | 91 | 990.6 |
| 20260510134330 | 18 | 262 | 19.3 | 22.5 | 0.00 | 0.33 | 0.00 | 91 | 990.6 |
| 20260510134000 | 22 | 261 | 19.3 | 20.9 | 0.00 | 0.66 | 0.00 | 91 | 984.2 |
| 20260510133829 | 18 | 267 | 16.1 | 22.5 | 0.00 | 0.33 | 0.00 | 91 | 990.6 |
| 20260510133330 | 18 | 267 | 19.3 | 24.1 | 0.00 | 0.33 | 0.00 | 91 | 990.6 |
| 20260510132831 | 18 | 269 | 14.5 | 24.1 | 0.00 | 0.33 | 0.00 | 91 | 990.6 |
| 20260510132331 | 21 | 269 | 19.3 | 22.5 | 0.00 | 0.66 | 0.00 | 92 | 984.1 |
| 20260510132200 | 21 | 272 | 16.1 | 25.7 | 0.00 | 0.66 | 0.00 | 92 | 984.1 |
| 20260510131831 | 21 | 273 | 16.1 | 22.5 | 0.00 | 0.66 | 0.00 | 92 | 984.1 |
| 20260510131330 | 18 | 276 | 19.3 | 22.5 | 0.00 | 0.33 | 0.00 | 91 | 990.6 |
| 20260510130830 | 21 | 270 | 19.3 | 22.5 | 0.00 | 0.66 | 0.00 | 94 | 984.0 |
| 20260510130401 | 20 | 269 | 16.1 | 22.5 | 0.00 | 0.66 | 0.00 | 94 | 983.8 |
| 20260510130331 | 18 | 264 | 14.5 | 20.9 | 0.00 | 0.33 | 0.00 | 91 | 990.6 |
| 20260510125831 | 18 | 270 | 16.1 | 20.9 | 0.00 | 0.33 | 0.00 | 91 | 990.6 |
| 20260510125331 | 20 | 271 | 16.1 | 20.9 | 0.00 | 0.66 | 0.00 | 96 | 983.7 |
| 20260510124830 | 18 | 272 | 14.5 | 19.3 | 0.00 | 0.33 | 0.00 | 91 | 990.6 |
| 20260510124601 | 18 | 268 | 14.5 | 19.3 | 0.00 | 0.33 | 0.00 | 91 | 990.6 |
| 20260510124331 | 19 | 261 | 14.5 | 19.3 | 0.00 | 0.66 | 0.00 | 96 | 983.4 |
| 20260510123831 | 18 | 265 | 14.5 | 20.9 | 0.00 | 0.33 | 0.00 | 91 | 990.6 |
| 20260510123331 | 18 | 269 | 11.3 | 20.9 | 0.00 | 0.66 | 0.00 | 96 | 983.7 |
| 20260510122830 | 18 | 268 | 14.5 | 20.9 | 0.00 | 0.66 | 0.00 | 95 | 983.5 |
| 20260510122802 | 18 | 268 | 14.5 | 20.9 | 0.00 | 0.33 | 0.00 | 91 | 990.6 |
| 20260510121330 | 18 | 269 | 14.5 | 20.9 | 0.00 | 0.66 | 0.00 | 95 | 983.7 |
| 20260510121000 | 18 | 273 | 16.1 | 20.9 | 0.00 | 0.66 | 0.00 | 95 | 983.4 |
| 20260510120831 | 18 | 270 | 16.1 | 19.3 | 0.00 | 0.66 | 0.00 | 95 | 983.4 |
| 20260510120330 | 18 | 272 | 16.1 | 22.5 | 0.00 | 0.66 | 0.00 | 95 | 983.1 |
| 20260510115831 | 18 | 282 | 16.1 | 20.9 | 0.00 | 0.33 | 0.00 | 91 | 990.6 |
| 20260510115201 | 18 | 276 | 16.1 | 19.3 | 0.00 | 0.33 | 0.00 | 91 | 990.6 |
| 20260510114831 | 18 | 265 | 16.1 | 19.3 | 0.00 | 0.33 | 0.00 | 91 | 990.6 |
| 20260510114330 | 18 | 267 | 14.5 | 19.3 | 0.00 | 0.66 | 0.00 | 95 | 983.1 |
| 20260510113830 | 18 | 271 | 12.9 | 20.9 | 0.00 | 0.33 | 0.00 | 91 | 990.6 |
| 20260510113401 | 18 | 267 | 19.3 | 22.5 | 0.00 | 0.33 | 0.00 | 91 | 990.6 |
| 20260510112830 | 18 | 268 | 12.9 | 16.1 | 0.00 | 0.33 | 0.00 | 91 | 990.6 |
| 20260510112331 | 18 | 269 | 12.9 | 20.9 | 0.00 | 0.66 | 0.00 | 94 | 983.5 |
| 20260510111830 | 18 | 269 | 14.5 | 20.9 | 0.00 | 0.33 | 0.00 | 91 | 990.6 |
| 20260510111602 | 18 | 269 | 11.3 | 20.9 | 0.00 | 0.33 | 0.00 | 91 | 990.6 |
| 20260510110830 | 18 | 268 | 14.5 | 22.5 | 0.00 | 0.33 | 0.00 | 91 | 990.6 |
| 20260510105832 | 19 | 268 | 14.5 | 20.9 | 0.00 | 0.66 | 0.00 | 93 | 983.1 |
| 20260510105801 | 19 | 268 | 14.5 | 20.9 | 0.00 | 0.66 | 0.00 | 93 | 983.1 |
| 20260510105331 | 18 | 273 | 12.9 | 20.9 | 0.00 | 0.33 | 0.00 | 91 | 990.6 |
| 20260510104830 | 18 | 273 | 14.5 | 24.1 | 0.00 | 0.33 | 0.00 | 91 | 990.6 |
| 20260510104001 | 19 | 279 | 16.1 | 22.5 | 0.00 | 0.66 | 0.00 | 91 | 983.7 |
| 20260510103829 | 19 | 277 | 16.1 | 19.3 | 0.00 | 0.66 | 0.00 | 91 | 983.2 |
| 20260510103331 | 18 | 274 | 14.5 | 20.9 | 0.00 | 0.66 | 0.00 | 91 | 983.3 |
| 20260510102831 | 18 | 264 | 14.5 | 16.1 | 0.00 | 0.33 | 0.00 | 91 | 990.6 |
| 20260510102331 | 19 | 268 | 14.5 | 16.1 | 0.00 | 0.66 | 0.00 | 90 | 983.7 |
| 20260510102201 | 19 | 266 | 14.5 | 19.3 | 0.00 | 0.66 | 0.00 | 90 | 983.2 |
| 20260510101832 | 18 | 271 | 16.1 | 22.5 | 0.00 | 0.33 | 0.00 | 91 | 990.6 |
| 20260510101331 | 19 | 271 | 14.5 | 19.3 | 0.00 | 0.66 | 0.00 | 89 | 983.6 |
| 20260510100401 | 18 | 268 | 14.5 | 19.3 | 0.00 | 0.33 | 0.00 | 91 | 990.6 |
| 20260510100333 | 19 | 269 | 12.9 | 19.3 | 0.00 | 0.66 | 0.00 | 89 | 983.3 |
| 20260510095834 | 19 | 269 | 12.9 | 20.9 | 0.00 | 0.66 | 0.00 | 88 | 983.7 |
| 20260510094602 | 20 | 268 | 14.5 | 14.5 | 0.00 | 0.66 | 0.00 | 87 | 983.6 |
| 20260510093831 | 20 | 269 | 14.5 | 14.5 | 0.00 | 0.66 | 0.00 | 87 | 983.4 |
| 20260510092833 | 18 | 269 | 14.5 | 14.5 | 0.00 | 0.33 | 0.00 | 91 | 990.6 |
| 20260510092802 | 18 | 269 | 14.5 | 14.5 | 0.00 | 0.33 | 0.00 | 91 | 990.6 |
| 20260510091831 | 18 | 269 | 14.5 | 14.5 | 0.00 | 0.33 | 0.00 | 91 | 990.6 |
| 20260510091330 | 18 | 269 | 14.5 | 14.5 | 0.00 | 0.33 | 0.00 | 91 | 990.6 |
| 20260510091002 | 20 | 269 | 14.5 | 14.5 | 0.00 | 0.66 | 0.00 | 86 | 983.0 |
| 20260510090830 | 20 | 269 | 14.5 | 14.5 | 0.00 | 0.66 | 0.00 | 86 | 983.1 |
| 20260510085832 | 20 | 269 | 14.5 | 16.1 | 0.00 | 0.66 | 0.00 | 85 | 983.2 |
| 20260510085330 | 18 | 269 | 14.5 | 16.1 | 0.00 | 0.33 | 0.00 | 91 | 990.6 |
| 20260510085201 | 20 | 269 | 14.5 | 16.1 | 0.00 | 0.66 | 0.00 | 85 | 983.4 |
| 20260510084333 | 18 | 269 | 14.5 | 16.1 | 0.00 | 0.33 | 0.00 | 91 | 990.6 |
| 20260510083830 | 20 | 269 | 14.5 | 14.5 | 0.00 | 0.66 | 0.00 | 85 | 983.4 |
| 20260510083402 | 20 | 269 | 14.5 | 16.1 | 0.00 | 0.66 | 0.00 | 84 | 983.1 |
| 20260510083330 | 18 | 269 | 14.5 | 16.1 | 0.00 | 0.33 | 0.00 | 91 | 990.6 |
| 20260510082332 | 20 | 269 | 14.5 | 14.5 | 0.00 | 0.66 | 0.00 | 83 | 983.3 |
| 20260510081830 | 20 | 269 | 14.5 | 16.1 | 0.00 | 0.66 | 0.00 | 83 | 983.1 |
| 20260510081602 | 21 | 269 | 14.5 | 16.1 | 0.00 | 0.66 | 0.00 | 83 | 983.1 |
| 20260510081330 | 21 | 269 | 14.5 | 16.1 | 0.00 | 0.66 | 0.00 | 83 | 983.2 |
| 20260510080830 | 18 | 269 | 14.5 | 16.1 | 0.00 | 0.33 | 0.00 | 91 | 990.6 |
| 20260510080330 | 21 | 269 | 14.5 | 16.1 | 0.00 | 0.66 | 0.00 | 82 | 983.4 |
| 20260510075833 | 18 | 269 | 14.5 | 16.1 | 0.00 | 0.33 | 0.00 | 91 | 990.6 |
| 20260510075802 | 18 | 269 | 14.5 | 16.1 | 0.00 | 0.33 | 0.00 | 91 | 990.6 |
| 20260510075332 | 21 | 269 | 14.5 | 16.1 | 0.00 | 0.66 | 0.00 | 82 | 982.7 |
| 20260510074832 | 18 | 271 | 14.5 | 16.1 | 0.00 | 0.33 | 0.00 | 91 | 990.6 |
| 20260510074332 | 21 | 269 | 14.5 | 16.1 | 0.00 | 0.66 | 0.00 | 81 | 983.2 |
| 20260510074002 | 21 | 269 | 14.5 | 16.1 | 0.00 | 0.66 | 0.00 | 81 | 983.1 |
| 20260510073831 | 18 | 269 | 16.1 | 19.3 | 0.00 | 0.33 | 0.00 | 91 | 990.6 |
| 20260510073331 | 18 | 269 | 14.5 | 16.1 | 0.00 | 0.33 | 0.00 | 91 | 990.6 |
| 20260510072830 | 22 | 269 | 16.1 | 16.1 | 0.00 | 0.66 | 0.00 | 80 | 982.8 |
| 20260510072331 | 18 | 271 | 16.1 | 16.1 | 0.00 | 0.33 | 0.00 | 91 | 990.6 |
| 20260510072202 | 18 | 270 | 16.1 | 16.1 | 0.00 | 0.33 | 0.00 | 91 | 990.6 |
| 20260510071831 | 18 | 268 | 16.1 | 16.1 | 0.00 | 0.33 | 0.00 | 91 | 990.6 |
| 20260510071331 | 22 | 269 | 14.5 | 16.1 | 0.00 | 0.66 | 0.00 | 81 | 982.7 |
| 20260510070831 | 22 | 269 | 16.1 | 16.1 | 0.00 | 0.66 | 0.00 | 81 | 982.7 |
| 20260510070401 | 18 | 269 | 16.1 | 19.3 | 0.00 | 0.33 | 0.00 | 91 | 990.6 |
| 20260510070330 | 18 | 269 | 16.1 | 19.3 | 0.00 | 0.33 | 0.00 | 91 | 990.6 |
| 20260510065830 | 18 | 269 | 16.1 | 16.1 | 0.00 | 0.33 | 0.00 | 91 | 990.6 |
| 20260510065331 | 18 | 268 | 16.1 | 20.9 | 0.00 | 0.33 | 0.00 | 91 | 990.6 |
| 20260510064603 | 22 | 270 | 16.1 | 19.3 | 0.00 | 0.66 | 0.00 | 84 | 982.7 |
| 20260510064331 | 22 | 269 | 16.1 | 19.3 | 0.00 | 0.66 | 0.00 | 85 | 983.1 |
| 20260510063831 | 22 | 271 | 16.1 | 16.1 | 0.00 | 0.66 | 0.00 | 85 | 982.8 |
| 20260510063332 | 22 | 269 | 16.1 | 16.1 | 0.00 | 0.66 | 0.00 | 85 | 982.9 |
| 20260510062832 | 22 | 269 | 16.1 | 16.1 | 0.00 | 0.66 | 0.00 | 85 | 982.8 |
| 20260510062801 | 22 | 269 | 16.1 | 16.1 | 0.00 | 0.66 | 0.00 | 85 | 982.8 |
| 20260510061830 | 22 | 269 | 16.1 | 16.1 | 0.00 | 0.66 | 0.00 | 85 | 983.1 |
| 20260510061004 | 18 | 269 | 16.1 | 16.1 | 0.00 | 0.33 | 0.00 | 91 | 990.6 |
| 20260510060831 | 18 | 268 | 16.1 | 16.1 | 0.00 | 0.33 | 0.00 | 91 | 990.6 |
| 20260510060332 | 18 | 269 | 16.1 | 16.1 | 0.00 | 0.33 | 0.00 | 91 | 990.6 |
| 20260510055817 | 18 | 269 | 16.1 | 16.1 | 0.00 | 0.33 | 0.00 | 91 | 990.6 |
| 20260510055317 | 18 | 269 | 16.1 | 16.1 | 0.00 | 0.33 | 0.00 | 91 | 990.6 |
| 20260510055148 | 18 | 269 | 16.1 | 16.1 | 0.00 | 0.33 | 0.00 | 91 | 990.6 |
| 20260510054817 | 22 | 269 | 16.1 | 16.1 | 0.00 | 0.66 | 0.00 | 84 | 982.7 |
| 20260510054319 | 22 | 269 | 16.1 | 16.1 | 0.00 | 0.66 | 0.00 | 83 | 982.9 |
| 20260510053816 | 18 | 269 | 16.1 | 19.3 | 0.00 | 0.33 | 0.00 | 91 | 990.6 |
| 20260510053347 | 22 | 268 | 16.1 | 16.1 | 0.00 | 0.66 | 0.00 | 83 | 983.7 |
| 20260510053316 | 18 | 269 | 16.1 | 16.1 | 0.00 | 0.33 | 0.00 | 91 | 990.6 |
| 20260510052816 | 23 | 269 | 16.1 | 16.1 | 0.00 | 0.66 | 0.00 | 83 | 982.7 |
| 20260510052317 | 23 | 269 | 16.1 | 16.1 | 0.00 | 0.66 | 0.00 | 83 | 983.1 |
| 20260510051819 | 23 | 269 | 16.1 | 16.1 | 0.00 | 0.66 | 0.00 | 83 | 983.1 |
| 20260510051547 | 23 | 268 | 16.1 | 16.1 | 0.00 | 0.66 | 0.00 | 82 | 983.1 |
| 20260510051317 | 18 | 269 | 16.1 | 16.1 | 0.00 | 0.33 | 0.00 | 91 | 990.6 |
| 20260510050817 | 23 | 269 | 16.1 | 16.1 | 0.00 | 0.66 | 0.00 | 82 | 982.5 |
| 20260510050316 | 18 | 269 | 16.1 | 16.1 | 0.00 | 0.33 | 0.00 | 91 | 990.6 |
| 20260510045819 | 18 | 269 | 16.1 | 16.1 | 0.00 | 0.33 | 0.33 | 91 | 990.6 |
| 20260510045748 | 18 | 269 | 16.1 | 16.1 | 0.00 | 0.33 | 0.33 | 91 | 990.6 |
| 20260510045317 | 18 | 269 | 16.1 | 16.1 | 0.00 | 0.33 | 0.33 | 91 | 990.6 |
| 20260510044817 | 18 | 269 | 16.1 | 16.1 | 0.00 | 0.33 | 0.33 | 91 | 990.6 |
| 20260510044318 | 18 | 269 | 16.1 | 16.1 | 0.00 | 0.33 | 0.33 | 91 | 990.6 |
| 20260510043947 | 18 | 269 | 16.1 | 16.1 | 0.00 | 0.33 | 0.33 | 91 | 990.6 |
| 20260510043817 | 18 | 269 | 16.1 | 16.1 | 0.00 | 0.33 | 0.33 | 91 | 990.6 |
| 20260510043316 | 23 | 269 | 16.1 | 16.1 | 0.00 | 0.33 | 0.33 | 80 | 982.4 |
| 20260510042816 | 23 | 269 | 16.1 | 16.1 | 0.00 | 0.33 | 0.33 | 80 | 982.7 |
| 20260510042317 | 23 | 270 | 16.1 | 16.1 | 0.00 | 0.33 | 0.33 | 79 | 982.4 |
| 20260510042148 | 23 | 269 | 16.1 | 16.1 | 0.00 | 0.33 | 0.33 | 79 | 982.2 |
| 20260510041818 | 18 | 269 | 16.1 | 19.3 | 0.00 | 0.33 | 0.33 | 91 | 990.6 |
| 20260510041316 | 23 | 269 | 16.1 | 19.3 | 0.00 | 0.33 | 0.33 | 80 | 982.1 |
| 20260510040817 | 23 | 269 | 16.1 | 19.3 | 0.00 | 0.33 | 0.33 | 79 | 982.7 |
| 20260510040347 | 23 | 268 | 16.1 | 19.3 | 0.00 | 0.33 | 0.33 | 80 | 982.6 |
| 20260510040318 | 18 | 267 | 16.1 | 19.3 | 0.00 | 0.33 | 0.33 | 91 | 990.6 |
| 20260510035816 | 23 | 268 | 16.1 | 19.3 | 0.00 | 0.33 | 0.33 | 82 | 982.4 |
| 20260510035317 | 18 | 269 | 16.1 | 16.1 | 0.00 | 0.33 | 0.33 | 91 | 990.6 |
| 20260510034816 | 18 | 269 | 16.1 | 19.3 | 0.00 | 0.33 | 0.33 | 91 | 990.6 |
| 20260510034548 | 18 | 270 | 16.1 | 16.1 | 0.00 | 0.33 | 0.33 | 91 | 990.6 |
| 20260510034317 | 18 | 269 | 16.1 | 19.3 | 0.00 | 0.33 | 0.33 | 91 | 990.6 |
| 20260510033817 | 23 | 269 | 16.1 | 19.3 | 0.00 | 0.33 | 0.33 | 80 | 982.1 |
| 20260510033316 | 18 | 271 | 16.1 | 19.3 | 0.00 | 0.33 | 0.33 | 91 | 990.6 |
| 20260510032749 | 18 | 269 | 16.1 | 16.1 | 0.00 | 0.33 | 0.33 | 91 | 990.6 |
| 20260510032317 | 23 | 269 | 16.1 | 16.1 | 0.00 | 0.33 | 0.33 | 80 | 981.8 |
| 20260510031816 | 23 | 270 | 16.1 | 19.3 | 0.00 | 0.33 | 0.33 | 80 | 982.1 |
| 20260510031318 | 18 | 269 | 16.1 | 16.1 | 0.00 | 0.33 | 0.33 | 91 | 990.6 |
| 20260510030948 | 18 | 269 | 16.1 | 19.3 | 0.00 | 0.33 | 0.33 | 91 | 990.6 |
| 20260510030818 | 24 | 269 | 16.1 | 16.1 | 0.00 | 0.33 | 0.33 | 79 | 982.0 |
| 20260510030317 | 24 | 269 | 16.1 | 19.3 | 0.00 | 0.33 | 0.33 | 77 | 982.0 |
| 20260510025817 | 18 | 269 | 16.1 | 19.3 | 0.00 | 0.33 | 0.33 | 91 | 990.6 |
| 20260510025317 | 24 | 269 | 16.1 | 19.3 | 0.00 | 0.33 | 0.33 | 76 | 981.7 |
| 20260510025147 | 24 | 269 | 16.1 | 19.3 | 0.00 | 0.33 | 0.33 | 76 | 981.7 |
| 20260510024818 | 18 | 269 | 16.1 | 19.3 | 0.00 | 0.33 | 0.33 | 91 | 990.6 |
| 20260510024318 | 25 | 271 | 19.3 | 19.3 | 0.00 | 0.33 | 0.33 | 75 | 981.5 |
| 20260510023348 | 18 | 269 | 19.3 | 19.3 | 0.00 | 0.33 | 0.33 | 91 | 990.6 |
| 20260510023318 | 25 | 269 | 19.3 | 19.3 | 0.00 | 0.33 | 0.33 | 72 | 981.7 |
| 20260510022817 | 26 | 270 | 19.3 | 19.3 | 0.00 | 0.33 | 0.33 | 71 | 981.5 |
| 20260510022318 | 26 | 269 | 19.3 | 19.3 | 0.00 | 0.33 | 0.33 | 70 | 981.9 |
| 20260510021816 | 18 | 270 | 16.1 | 19.3 | 0.00 | 0.33 | 0.33 | 91 | 990.6 |
| 20260510021548 | 26 | 271 | 16.1 | 19.3 | 0.00 | 0.33 | 0.33 | 69 | 981.4 |
| 20260510021318 | 18 | 269 | 16.1 | 19.3 | 0.00 | 0.33 | 0.33 | 91 | 990.6 |
| 20260510020816 | 18 | 271 | 19.3 | 19.3 | 0.00 | 0.33 | 0.33 | 91 | 990.6 |
| 20260510020317 | 26 | 269 | 16.1 | 19.3 | 0.00 | 0.33 | 0.33 | 67 | 981.1 |
| 20260510015819 | 26 | 269 | 19.3 | 19.3 | 0.00 | 0.33 | 0.33 | 67 | 981.4 |
| 20260510015748 | 26 | 269 | 19.3 | 19.3 | 0.00 | 0.33 | 0.33 | 67 | 981.4 |
| 20260510015317 | 27 | 269 | 19.3 | 19.3 | 0.00 | 0.33 | 0.33 | 66 | 981.4 |
| 20260510014816 | 27 | 269 | 19.3 | 20.9 | 0.00 | 0.33 | 0.33 | 65 | 981.1 |
| 20260510014317 | 27 | 268 | 19.3 | 20.9 | 0.00 | 0.33 | 0.33 | 65 | 980.9 |
| 20260510013947 | 27 | 267 | 19.3 | 20.9 | 0.00 | 0.33 | 0.33 | 65 | 981.0 |
| 20260510013818 | 18 | 269 | 19.3 | 20.9 | 0.00 | 0.33 | 0.33 | 91 | 990.6 |
| 20260510013318 | 27 | 268 | 19.3 | 20.9 | 0.00 | 0.33 | 0.33 | 63 | 981.0 |
| 20260510012817 | 27 | 269 | 19.3 | 20.9 | 0.00 | 0.33 | 0.33 | 62 | 980.8 |
| 20260510012318 | 27 | 268 | 19.3 | 20.9 | 0.00 | 0.33 | 0.33 | 62 | 980.5 |
| 20260510012148 | 18 | 269 | 19.3 | 20.9 | 0.00 | 0.33 | 0.33 | 91 | 990.6 |
| 20260510011819 | 18 | 273 | 20.9 | 20.9 | 0.00 | 0.33 | 0.33 | 91 | 990.6 |
| 20260510011317 | 18 | 268 | 19.3 | 22.5 | 0.00 | 0.33 | 0.33 | 91 | 990.6 |
| 20260510010817 | 18 | 267 | 19.3 | 20.9 | 0.00 | 0.33 | 0.33 | 91 | 990.6 |
| 20260510010349 | 18 | 271 | 20.9 | 24.1 | 0.00 | 0.33 | 0.33 | 91 | 990.6 |
| 20260510010317 | 28 | 263 | 19.3 | 24.1 | 0.00 | 0.33 | 0.33 | 59 | 980.4 |
| 20260510005818 | 18 | 269 | 19.3 | 22.5 | 0.00 | 0.33 | 0.33 | 91 | 990.6 |
| 20260510005318 | 18 | 268 | 19.3 | 20.9 | 0.00 | 0.33 | 0.33 | 91 | 990.6 |
| 20260510004817 | 28 | 272 | 20.9 | 20.9 | 0.00 | 0.33 | 0.33 | 58 | 980.7 |
| 20260510004548 | 28 | 269 | 20.9 | 20.9 | 0.00 | 0.33 | 0.33 | 58 | 980.1 |
| 20260510004317 | 28 | 269 | 20.9 | 20.9 | 0.00 | 0.33 | 0.33 | 59 | 980.3 |
| 20260510003818 | 28 | 269 | 19.3 | 20.9 | 0.00 | 0.33 | 0.33 | 60 | 980.3 |
| 20260510003317 | 28 | 269 | 16.1 | 20.9 | 0.00 | 0.33 | 0.33 | 58 | 980.3 |
| 20260510002748 | 28 | 269 | 20.9 | 22.5 | 0.00 | 0.33 | 0.33 | 61 | 979.7 |
| 20260510002317 | 28 | 270 | 20.9 | 24.1 | 0.00 | 0.33 | 0.33 | 62 | 980.4 |
| 20260510001818 | 18 | 269 | 20.9 | 20.9 | 0.03 | 0.33 | 0.33 | 91 | 990.6 |
| 20260510001317 | 18 | 267 | 19.3 | 20.9 | 0.05 | 0.33 | 0.33 | 91 | 990.6 |
| 20260510000947 | 28 | 268 | 16.1 | 20.9 | 0.05 | 0.33 | 0.33 | 68 | 980.1 |
| 20260510000817 | 28 | 269 | 19.3 | 20.9 | 0.05 | 0.33 | 0.33 | 65 | 980.0 |
| 20260510000318 | 18 | 268 | 19.3 | 20.9 | 0.05 | 0.33 | 0.33 | 91 | 990.6 |
| 20260509235817 | 18 | 272 | 19.3 | 20.9 | 0.05 | 0.33 | 0.33 | 91 | 990.6 |
| 20260509235317 | 28 | 267 | 19.3 | 20.9 | 0.05 | 0.33 | 0.33 | 73 | 979.9 |
| 20260509235147 | 18 | 268 | 19.3 | 20.9 | 0.05 | 0.33 | 0.33 | 91 | 990.6 |
| 20260509234818 | 18 | 270 | 19.3 | 20.9 | 0.05 | 0.33 | 0.33 | 91 | 990.6 |
| 20260509234317 | 18 | 269 | 19.3 | 20.9 | 0.05 | 0.33 | 0.33 | 91 | 990.6 |
| 20260509233817 | 28 | 269 | 19.3 | 20.9 | 0.05 | 0.33 | 0.33 | 74 | 979.8 |
| 20260509233347 | 18 | 269 | 19.3 | 20.9 | 0.05 | 0.33 | 0.33 | 91 | 990.6 |
| 20260509233318 | 18 | 269 | 19.3 | 20.9 | 0.05 | 0.33 | 0.33 | 91 | 990.6 |
| 20260509232816 | 18 | 269 | 19.3 | 20.9 | 0.05 | 0.33 | 0.33 | 91 | 990.6 |
| 20260509232318 | 29 | 267 | 20.9 | 20.9 | 0.05 | 0.33 | 0.33 | 70 | 979.4 |
| 20260509231549 | 30 | 269 | 22.5 | 24.1 | 0.03 | 0.30 | 0.30 | 63 | 979.2 |
| 20260509231318 | 31 | 269 | 24.1 | 27.4 | 0.00 | 0.28 | 0.28 | 58 | 979.1 |
| 20260509230818 | 18 | 271 | 22.5 | 25.7 | 0.00 | 0.28 | 0.28 | 91 | 990.6 |
| 20260509230317 | 18 | 270 | 22.5 | 24.1 | 0.00 | 0.28 | 0.28 | 91 | 990.6 |
| 20260509225748 | 31 | 269 | 19.3 | 25.7 | 0.00 | 0.28 | 0.28 | 51 | 979.8 |
| 20260509225317 | 18 | 269 | 22.5 | 24.1 | 0.00 | 0.28 | 0.28 | 91 | 990.6 |
| 20260509224818 | 33 | 274 | 20.9 | 24.1 | 0.00 | 0.28 | 0.28 | 48 | 980.0 |
| 20260509224318 | 18 | 267 | 22.5 | 24.1 | 0.00 | 0.28 | 0.28 | 91 | 990.6 |
| 20260509223948 | 33 | 268 | 24.1 | 24.1 | 0.00 | 0.28 | 0.28 | 51 | 979.7 |
| 20260509223819 | 18 | 269 | 24.1 | 24.1 | 0.00 | 0.28 | 0.28 | 91 | 990.6 |
| 20260509223318 | 33 | 269 | 24.1 | 25.7 | 0.00 | 0.28 | 0.28 | 48 | 980.0 |
| 20260509222819 | 33 | 271 | 25.7 | 27.4 | 0.00 | 0.28 | 0.28 | 49 | 979.7 |
| 20260509222319 | 33 | 269 | 22.5 | 27.4 | 0.00 | 0.28 | 0.28 | 48 | 979.7 |
| 20260509222148 | 18 | 264 | 20.9 | 27.4 | 0.00 | 0.28 | 0.28 | 91 | 990.6 |
| 20260509221818 | 18 | 267 | 24.1 | 25.7 | 0.00 | 0.28 | 0.28 | 91 | 990.6 |
| 20260509221318 | 18 | 269 | 25.7 | 27.4 | 0.00 | 0.28 | 0.28 | 91 | 990.6 |
| 20260509220817 | 33 | 266 | 27.4 | 27.4 | 0.00 | 0.28 | 0.28 | 50 | 980.0 |
| 20260509220347 | 18 | 267 | 22.5 | 24.1 | 0.00 | 0.28 | 0.28 | 91 | 990.6 |
| 20260509220317 | 18 | 268 | 20.9 | 24.1 | 0.00 | 0.28 | 0.28 | 91 | 990.6 |
| 20260509215818 | 18 | 268 | 25.7 | 29.0 | 0.00 | 0.28 | 0.28 | 91 | 990.6 |
| 20260509215317 | 33 | 268 | 25.7 | 27.4 | 0.00 | 0.28 | 0.28 | 49 | 980.0 |
| 20260509214819 | 18 | 271 | 24.1 | 27.4 | 0.00 | 0.28 | 0.28 | 91 | 990.6 |
| 20260509214549 | 33 | 268 | 25.7 | 27.4 | 0.00 | 0.28 | 0.28 | 45 | 980.0 |
| 20260509214318 | 34 | 268 | 25.7 | 27.4 | 0.00 | 0.28 | 0.28 | 47 | 979.9 |
| 20260509213817 | 18 | 272 | 24.1 | 27.4 | 0.00 | 0.28 | 0.28 | 91 | 990.6 |
| 20260509213318 | 35 | 269 | 24.1 | 25.7 | 0.00 | 0.28 | 0.28 | 46 | 980.0 |
| 20260509212819 | 34 | 268 | 24.1 | 27.4 | 0.00 | 0.28 | 0.28 | 49 | 980.2 |
| 20260509212748 | 18 | 269 | 25.7 | 27.4 | 0.00 | 0.28 | 0.28 | 91 | 990.6 |
| 20260509212318 | 18 | 269 | 24.1 | 25.7 | 0.00 | 0.28 | 0.28 | 91 | 990.6 |
| 20260509211818 | 33 | 266 | 24.1 | 25.7 | 0.00 | 0.28 | 0.28 | 48 | 980.0 |
| 20260509211318 | 33 | 266 | 25.7 | 32.2 | 0.00 | 0.28 | 0.28 | 49 | 980.1 |
| 20260509210948 | 18 | 270 | 27.4 | 29.0 | 0.00 | 0.28 | 0.28 | 91 | 990.6 |
| 20260509210817 | 18 | 267 | 25.7 | 29.0 | 0.00 | 0.28 | 0.28 | 91 | 990.6 |
| 20260509210318 | 18 | 269 | 22.5 | 25.7 | 0.00 | 0.28 | 0.28 | 91 | 990.6 |
| 20260509205818 | 18 | 269 | 24.1 | 25.7 | 0.00 | 0.28 | 0.28 | 91 | 990.6 |
| 20260509205317 | 33 | 269 | 24.1 | 25.7 | 0.00 | 0.28 | 0.28 | 47 | 980.4 |
| 20260509205148 | 33 | 268 | 24.1 | 27.4 | 0.00 | 0.28 | 0.28 | 47 | 980.5 |
| 20260509204817 | 18 | 264 | 24.1 | 29.0 | 0.00 | 0.28 | 0.28 | 91 | 990.6 |
| 20260509204317 | 33 | 268 | 25.7 | 32.2 | 0.00 | 0.28 | 0.28 | 47 | 980.4 |
| 20260509203817 | 18 | 267 | 25.7 | 33.8 | 0.00 | 0.28 | 0.28 | 91 | 990.6 |
| 20260509203347 | 33 | 269 | 27.4 | 27.4 | 0.00 | 0.28 | 0.28 | 49 | 980.6 |
| 20260509203318 | 18 | 268 | 25.7 | 27.4 | 0.00 | 0.28 | 0.28 | 91 | 990.6 |
| 20260509202817 | 18 | 269 | 24.1 | 27.4 | 0.00 | 0.28 | 0.28 | 91 | 990.6 |
| 20260509202317 | 32 | 268 | 24.1 | 29.0 | 0.00 | 0.28 | 0.28 | 48 | 980.7 |
| 20260509201817 | 18 | 267 | 22.5 | 29.0 | 0.00 | 0.28 | 0.28 | 91 | 990.6 |
| 20260509201548 | 32 | 269 | 25.7 | 29.0 | 0.00 | 0.28 | 0.28 | 52 | 980.7 |
| 20260509201317 | 18 | 269 | 24.1 | 29.0 | 0.00 | 0.28 | 0.28 | 91 | 990.6 |
| 20260509200818 | 32 | 265 | 25.7 | 27.4 | 0.00 | 0.28 | 0.28 | 51 | 980.9 |
| 20260509200317 | 32 | 267 | 24.1 | 27.4 | 0.00 | 0.28 | 0.28 | 53 | 980.8 |
| 20260509195820 | 31 | 269 | 24.1 | 25.7 | 0.00 | 0.28 | 0.28 | 60 | 981.4 |
| 20260509195748 | 31 | 269 | 24.1 | 25.7 | 0.00 | 0.28 | 0.28 | 60 | 981.4 |
| 20260509195317 | 18 | 268 | 22.5 | 29.0 | 0.00 | 0.28 | 0.28 | 91 | 990.6 |
| 20260509194818 | 18 | 267 | 24.1 | 32.2 | 0.00 | 0.28 | 0.28 | 91 | 990.6 |
| 20260509194317 | 32 | 269 | 25.7 | 29.0 | 0.00 | 0.28 | 0.28 | 54 | 981.7 |
| 20260509193950 | 32 | 269 | 24.1 | 27.4 | 0.00 | 0.28 | 0.28 | 54 | 981.5 |
| 20260509193818 | 32 | 269 | 24.1 | 27.4 | 0.00 | 0.28 | 0.28 | 55 | 982.0 |
| 20260509192319 | 18 | 268 | 25.7 | 29.0 | 0.00 | 0.28 | 0.28 | 91 | 990.6 |
| 20260509192149 | 31 | 269 | 24.1 | 25.7 | 0.00 | 0.28 | 0.28 | 56 | 981.7 |
| 20260509191818 | 31 | 271 | 25.7 | 27.4 | 0.00 | 0.28 | 0.28 | 56 | 981.9 |
| 20260509190818 | 18 | 269 | 24.1 | 25.7 | 0.00 | 0.28 | 0.28 | 91 | 990.6 |
| 20260509190349 | 31 | 268 | 25.7 | 29.0 | 0.00 | 0.28 | 0.28 | 59 | 982.1 |
| 20260509190318 | 31 | 269 | 25.7 | 25.7 | 0.00 | 0.28 | 0.28 | 57 | 982.1 |
| 20260509185817 | 18 | 270 | 25.7 | 29.0 | 0.00 | 0.28 | 0.28 | 91 | 990.6 |
| 20260509185320 | 32 | 269 | 24.1 | 27.4 | 0.00 | 0.28 | 0.28 | 56 | 981.8 |
| 20260509184819 | 18 | 266 | 24.1 | 27.4 | 0.00 | 0.28 | 0.28 | 91 | 990.6 |
| 20260509184549 | 18 | 269 | 22.5 | 25.7 | 0.00 | 0.28 | 0.28 | 91 | 990.6 |
| 20260509184318 | 31 | 267 | 24.1 | 25.7 | 0.00 | 0.28 | 0.28 | 58 | 982.2 |
| 20260509183818 | 30 | 269 | 25.7 | 25.7 | 0.00 | 0.28 | 0.28 | 64 | 982.4 |
| 20260509183318 | 30 | 269 | 22.5 | 22.5 | 0.00 | 0.28 | 0.28 | 63 | 982.4 |
| 20260509182749 | 18 | 269 | 24.1 | 25.7 | 0.00 | 0.28 | 0.28 | 91 | 990.6 |
| 20260509182317 | 18 | 269 | 25.7 | 29.0 | 0.00 | 0.28 | 0.28 | 91 | 990.6 |
| 20260509181818 | 18 | 271 | 24.1 | 25.7 | 0.00 | 0.28 | 0.28 | 91 | 990.6 |
| 20260509181318 | 30 | 268 | 22.5 | 25.7 | 0.00 | 0.28 | 0.28 | 65 | 982.4 |
| 20260509180949 | 18 | 269 | 22.5 | 27.4 | 0.00 | 0.28 | 0.28 | 91 | 990.6 |
| 20260509180818 | 18 | 269 | 24.1 | 27.4 | 0.00 | 0.28 | 0.28 | 91 | 990.6 |
| 20260509180317 | 18 | 272 | 24.1 | 25.7 | 0.00 | 0.28 | 0.28 | 91 | 990.6 |
| 20260509175819 | 30 | 269 | 24.1 | 27.4 | 0.00 | 0.28 | 0.28 | 64 | 982.7 |
| 20260509175317 | 31 | 266 | 24.1 | 27.4 | 0.00 | 0.28 | 0.28 | 66 | 982.7 |
| 20260509175148 | 18 | 268 | 24.1 | 25.7 | 0.00 | 0.28 | 0.28 | 91 | 990.6 |
| 20260509174819 | 18 | 269 | 24.1 | 27.4 | 0.00 | 0.28 | 0.28 | 91 | 990.6 |
| 20260509174317 | 30 | 268 | 22.5 | 27.4 | 0.00 | 0.28 | 0.28 | 67 | 982.9 |
| 20260509173817 | 18 | 268 | 24.1 | 25.7 | 0.00 | 0.28 | 0.28 | 91 | 990.6 |
| 20260509173348 | 30 | 268 | 24.1 | 25.7 | 0.00 | 0.28 | 0.28 | 69 | 982.7 |
| 20260509173319 | 30 | 267 | 22.5 | 27.4 | 0.00 | 0.28 | 0.28 | 69 | 983.3 |
| 20260509172817 | 30 | 270 | 22.5 | 25.7 | 0.00 | 0.28 | 0.28 | 70 | 982.7 |
| 20260509172319 | 18 | 271 | 22.5 | 24.1 | 0.00 | 0.28 | 0.28 | 91 | 990.6 |
| 20260509171817 | 28 | 266 | 24.1 | 25.7 | 0.00 | 0.28 | 0.28 | 70 | 982.7 |
| 20260509171549 | 29 | 269 | 22.5 | 25.7 | 0.00 | 0.28 | 0.28 | 70 | 983.3 |
| 20260509171319 | 29 | 268 | 24.1 | 25.7 | 0.00 | 0.28 | 0.28 | 70 | 983.1 |
| 20260509170818 | 28 | 267 | 22.5 | 25.7 | 0.00 | 0.28 | 0.28 | 71 | 983.1 |
| 20260509170317 | 28 | 267 | 22.5 | 24.1 | 0.00 | 0.28 | 0.28 | 75 | 983.1 |
| 20260509165818 | 18 | 272 | 20.9 | 32.2 | 0.00 | 0.28 | 0.28 | 91 | 990.6 |
| 20260509165748 | 27 | 264 | 22.5 | 32.2 | 0.00 | 0.28 | 0.28 | 77 | 982.8 |
| 20260509165318 | 18 | 267 | 24.1 | 32.2 | 0.00 | 0.28 | 0.28 | 91 | 990.6 |
| 20260509164819 | 27 | 269 | 20.9 | 27.4 | 0.00 | 0.28 | 0.28 | 78 | 983.0 |
| 20260509164318 | 27 | 269 | 24.1 | 27.4 | 0.00 | 0.28 | 0.28 | 75 | 982.9 |
| 20260509163948 | 27 | 268 | 22.5 | 29.0 | 0.00 | 0.28 | 0.28 | 78 | 983.0 |
| 20260509163817 | 27 | 270 | 24.1 | 29.0 | 0.00 | 0.28 | 0.28 | 76 | 983.4 |
| 20260509163317 | 18 | 270 | 22.5 | 24.1 | 0.00 | 0.28 | 0.28 | 91 | 990.6 |
| 20260509162819 | 27 | 269 | 22.5 | 24.1 | 0.00 | 0.28 | 0.28 | 80 | 983.1 |
| 20260509162317 | 18 | 273 | 20.9 | 24.1 | 0.00 | 0.28 | 0.28 | 91 | 990.6 |
| 20260509162149 | 18 | 270 | 22.5 | 24.1 | 0.03 | 0.28 | 0.28 | 91 | 990.6 |
| 20260509161819 | 26 | 269 | 22.5 | 24.1 | 0.10 | 0.28 | 0.28 | 82 | 982.7 |
| 20260509161318 | 26 | 268 | 20.9 | 24.1 | 0.13 | 0.28 | 0.28 | 85 | 982.8 |
| 20260509160349 | 18 | 269 | 20.9 | 24.1 | 0.13 | 0.28 | 0.28 | 91 | 990.6 |
| 20260509160317 | 18 | 268 | 19.3 | 24.1 | 0.13 | 0.28 | 0.28 | 91 | 990.6 |
| 20260509155818 | 18 | 264 | 20.9 | 22.5 | 0.18 | 0.28 | 0.28 | 91 | 990.6 |
| 20260509155317 | 25 | 273 | 20.9 | 22.5 | 0.18 | 0.28 | 0.28 | 89 | 982.8 |
| 20260509154817 | 18 | 269 | 20.9 | 22.5 | 0.18 | 0.28 | 0.28 | 91 | 990.6 |
| 20260509154548 | 24 | 269 | 20.9 | 22.5 | 0.18 | 0.28 | 0.28 | 88 | 983.0 |
| 20260509154318 | 18 | 277 | 16.1 | 22.5 | 0.18 | 0.28 | 0.28 | 91 | 990.6 |
| 20260509153817 | 24 | 268 | 20.9 | 22.5 | 0.20 | 0.28 | 0.28 | 94 | 983.1 |
| 20260509153318 | 18 | 266 | 16.1 | 19.3 | 0.20 | 0.28 | 0.28 | 91 | 990.6 |
| 20260509152749 | 23 | 271 | 16.1 | 19.3 | 0.23 | 0.28 | 0.28 | 97 | 983.6 |
| 20260509152317 | 18 | 270 | 16.1 | 19.3 | 0.25 | 0.28 | 0.28 | 91 | 990.6 |
| 20260509151818 | 18 | 268 | 16.1 | 19.3 | 0.18 | 0.20 | 0.20 | 91 | 990.6 |
| 20260509151318 | 18 | 269 | 19.3 | 20.9 | 0.18 | 0.18 | 0.18 | 91 | 990.6 |
| 20260509150950 | 18 | 271 | 19.3 | 19.3 | 0.15 | 0.15 | 0.15 | 91 | 990.6 |
| 20260509150819 | 22 | 269 | 16.1 | 19.3 | 0.15 | 0.15 | 0.15 | 97 | 983.2 |
| 20260509150319 | 22 | 268 | 14.5 | 20.9 | 0.15 | 0.15 | 0.15 | 97 | 983.7 |
| 20260509145818 | 18 | 266 | 16.1 | 19.3 | 0.10 | 0.10 | 0.10 | 91 | 990.6 |
| 20260509145318 | 23 | 271 | 16.1 | 19.3 | 0.10 | 0.10 | 0.10 | 97 | 983.4 |
| 20260509145148 | 22 | 269 | 16.1 | 19.3 | 0.10 | 0.10 | 0.10 | 97 | 983.4 |
| 20260509144818 | 18 | 271 | 16.1 | 19.3 | 0.10 | 0.10 | 0.10 | 91 | 990.6 |
| 20260509144320 | 18 | 269 | 16.1 | 19.3 | 0.10 | 0.10 | 0.10 | 91 | 990.6 |
| 20260509143817 | 18 | 269 | 16.1 | 19.3 | 0.10 | 0.10 | 0.10 | 91 | 990.6 |
| 20260509143349 | 22 | 270 | 16.1 | 19.3 | 0.08 | 0.08 | 0.08 | 97 | 983.9 |
| 20260509143318 | 18 | 269 | 16.1 | 19.3 | 0.08 | 0.08 | 0.08 | 91 | 990.6 |